Time;durP1;ratioP1;P1;durP2;ratioP2;P2;SDS_P1;SDS_P2;PMS_P1;PMS_P2;Temp;Humidity;BMP_temperature;BMP_pressure;BME280_temperature;BME280_humidity;BME280_pressure;Samples;Min_cycle;Max_cycle;Signal;HPM_P1;HPM_P2
2022/12/24 00:02:08;;;;;;;19.63;9.98;;;8.70;99.90;;;;;;5071965;28;20181;-70
2022/12/24 00:04:34;;;;;;;24.38;9.70;;;8.70;99.90;;;;;;5071148;28;20455;-70
2022/12/24 00:06:59;;;;;;;19.58;10.18;;;8.70;99.90;;;;;;5071540;28;20048;-70
2022/12/24 00:09:25;;;;;;;18.08;10.45;;;8.80;99.90;;;;;;5071828;28;20044;-71
2022/12/24 00:11:50;;;;;;;24.67;9.77;;;8.80;99.90;;;;;;5070312;28;20050;-71
2022/12/24 00:14:16;;;;;;;23.85;10.35;;;8.80;99.90;;;;;;5071164;28;20040;-70
2022/12/24 00:16:41;;;;;;;24.05;10.25;;;8.80;99.90;;;;;;5071926;28;20086;-70
2022/12/24 00:19:07;;;;;;;21.92;9.90;;;8.80;99.90;;;;;;5071468;28;20128;-70
2022/12/24 00:21:33;;;;;;;26.33;9.60;;;8.80;99.90;;;;;;5070169;28;20052;-71
2022/12/24 00:23:58;;;;;;;20.65;10.57;;;8.80;99.90;;;;;;5060153;28;20136;-71
2022/12/24 00:26:24;;;;;;;21.35;10.77;;;8.90;99.90;;;;;;5056720;28;20404;-71
2022/12/24 00:28:49;;;;;;;28.02;11.55;;;8.80;99.90;;;;;;5057867;28;20040;-71
2022/12/24 00:31:17;;;;;;;21.77;11.18;;;8.80;99.90;;;;;;5064042;28;20036;-71
2022/12/24 00:33:44;;;;;;;25.85;11.88;;;8.80;99.90;;;;;;5062582;28;20040;-71
2022/12/24 00:36:10;;;;;;;24.08;12.13;;;8.80;99.90;;;;;;5071278;28;20033;-71
2022/12/24 00:38:36;;;;;;;27.10;12.70;;;8.80;99.90;;;;;;5069678;28;20048;-70
2022/12/24 00:41:03;;;;;;;22.63;11.15;;;8.90;99.90;;;;;;5071068;28;20378;-70
2022/12/24 00:43:30;;;;;;;23.88;10.60;;;8.80;99.90;;;;;;5071013;28;20037;-70
2022/12/24 00:45:56;;;;;;;16.25;8.10;;;8.80;99.90;;;;;;5070411;28;20115;-70
2022/12/24 00:48:21;;;;;;;21.42;8.30;;;8.80;99.90;;;;;;5071355;28;20048;-70
2022/12/24 00:50:48;;;;;;;19.17;8.20;;;8.90;99.90;;;;;;5071124;28;20059;-71
2022/12/24 00:53:14;;;;;;;14.90;7.72;;;8.80;99.90;;;;;;5071229;28;20116;-71
2022/12/24 00:55:40;;;;;;;17.55;8.45;;;8.80;99.90;;;;;;5069708;28;20045;-70
2022/12/24 00:58:05;;;;;;;13.07;7.03;;;8.90;99.90;;;;;;5071288;28;20051;-71
2022/12/24 01:00:31;;;;;;;13.25;7.00;;;8.90;99.90;;;;;;5037320;28;20040;-70
2022/12/24 01:02:56;;;;;;;14.02;6.72;;;8.90;99.90;;;;;;5050978;28;20073;-70
2022/12/24 01:05:22;;;;;;;14.27;7.20;;;8.90;99.90;;;;;;5032081;28;20055;-70
2022/12/24 01:07:48;;;;;;;11.40;5.50;;;8.90;99.90;;;;;;5034275;28;20068;-71
2022/12/24 01:10:16;;;;;;;9.70;5.15;;;8.90;99.90;;;;;;5029694;28;20038;-72
2022/12/24 01:12:42;;;;;;;8.85;5.18;;;8.90;99.90;;;;;;5031057;28;20485;-71
2022/12/24 01:15:09;;;;;;;10.30;5.38;;;8.90;99.90;;;;;;5030035;28;20037;-71
2022/12/24 01:17:35;;;;;;;9.38;5.38;;;8.90;99.90;;;;;;5030872;28;20037;-71
2022/12/24 01:20:01;;;;;;;10.07;5.55;;;9.00;99.90;;;;;;5030937;28;20041;-71
2022/12/24 01:22:27;;;;;;;9.57;5.78;;;9.00;99.90;;;;;;5030878;28;20044;-70
2022/12/24 01:24:53;;;;;;;14.10;5.18;;;9.00;99.90;;;;;;5030255;28;20046;-70
2022/12/24 01:27:18;;;;;;;10.93;6.18;;;9.00;99.90;;;;;;5029335;28;20077;-71
2022/12/24 01:29:44;;;;;;;9.63;5.95;;;9.00;99.90;;;;;;5029527;28;20073;-71
2022/12/24 01:32:09;;;;;;;16.65;7.03;;;9.00;99.90;;;;;;5030586;28;20045;-70
2022/12/24 01:34:35;;;;;;;8.52;6.70;;;9.00;99.90;;;;;;5029766;28;20132;-70
2022/12/24 01:37:01;;;;;;;16.95;7.13;;;9.00;99.90;;;;;;5029200;28;20054;-70
2022/12/24 01:39:26;;;;;;;12.45;6.88;;;9.00;99.90;;;;;;5030339;28;20064;-71
2022/12/24 01:44:41;;;;;;;13.43;6.85;;;9.00;99.90;;;;;;5029952;28;20041;-70
2022/12/24 01:47:13;;;;;;;14.68;6.97;;;9.00;99.90;;;;;;5030399;28;20410;-71
2022/12/24 01:49:43;;;;;;;16.23;6.53;;;9.00;99.90;;;;;;5030466;28;20046;-71
2022/12/24 01:52:15;;;;;;;13.70;6.47;;;9.00;99.90;;;;;;5029151;28;20099;-71
2022/12/24 01:54:53;;;;;;;13.05;6.10;;;9.00;99.90;;;;;;5029606;28;20041;-71
2022/12/24 01:57:24;;;;;;;11.32;6.38;;;9.00;99.90;;;;;;5030566;28;20086;-71
2022/12/24 01:59:55;;;;;;;12.93;6.28;;;9.00;99.90;;;;;;5029997;28;20120;-70
2022/12/24 02:02:21;;;;;;;8.80;5.80;;;9.10;99.90;;;;;;5030556;28;20075;-72
2022/12/24 02:04:56;;;;;;;10.00;5.07;;;9.10;99.90;;;;;;5028130;28;20526;-72
2022/12/24 02:07:22;;;;;;;6.72;4.78;;;9.10;99.90;;;;;;5032086;28;20156;-71
2022/12/24 02:09:52;;;;;;;9.45;3.97;;;9.10;99.90;;;;;;5034132;28;20045;-71
2022/12/24 02:12:18;;;;;;;5.53;3.38;;;9.10;99.90;;;;;;5034213;28;20045;-71
2022/12/24 02:14:43;;;;;;;9.15;3.03;;;9.10;99.90;;;;;;5033337;28;20240;-71
2022/12/24 02:17:09;;;;;;;8.25;2.90;;;9.10;99.90;;;;;;5032668;28;20116;-72
2022/12/24 02:19:56;;;;;;;2.95;2.30;;;9.10;99.90;;;;;;5032722;28;20041;-72
2022/12/24 02:22:41;;;;;;;15.00;3.10;;;9.00;99.90;;;;;;5032840;28;20438;-73
2022/12/24 02:25:32;;;;;;;9.32;3.47;;;9.10;99.90;;;;;;5031643;28;20049;-72
2022/12/24 02:28:39;;;;;;;22.20;4.25;;;9.00;99.90;;;;;;5032444;28;20048;-72
2022/12/24 02:31:13;;;;;;;13.70;4.00;;;9.00;99.90;;;;;;5032459;28;20049;-72
2022/12/24 02:33:47;;;;;;;28.13;4.50;;;9.00;99.90;;;;;;5032378;28;20048;-70
2022/12/24 02:36:43;;;;;;;19.40;4.03;;;9.00;99.90;;;;;;5032290;28;20045;-70
2022/12/24 02:39:19;;;;;;;26.00;4.32;;;9.00;99.90;;;;;;5016593;28;20049;-72
2022/12/24 02:42:04;;;;;;;24.27;4.10;;;9.00;99.90;;;;;;5033378;28;20486;-70
2022/12/24 02:44:32;;;;;;;28.25;6.03;;;9.00;99.90;;;;;;5031507;28;20045;-70
2022/12/24 02:46:59;;;;;;;28.38;5.60;;;9.00;99.90;;;;;;5033302;28;20057;-70
2022/12/24 02:49:25;;;;;;;28.60;4.60;;;9.00;99.90;;;;;;5033342;28;20053;-70
2022/12/24 02:51:51;;;;;;;26.33;4.10;;;9.00;99.90;;;;;;5033150;28;20092;-71
2022/12/24 02:54:17;;;;;;;27.17;4.88;;;9.10;99.90;;;;;;5015016;28;20156;-71
2022/12/24 02:56:53;;;;;;;20.63;3.42;;;9.10;99.90;;;;;;5032084;28;20049;-70
2022/12/24 02:59:31;;;;;;;25.58;4.72;;;9.10;99.90;;;;;;5033243;28;20045;-70
2022/12/24 03:02:12;;;;;;;18.52;4.63;;;9.10;99.90;;;;;;5033426;28;20041;-70
2022/12/24 03:04:58;;;;;;;30.08;4.75;;;9.10;99.90;;;;;;5032579;28;20045;-70
2022/12/24 03:07:31;;;;;;;22.80;3.78;;;9.10;99.90;;;;;;5032767;28;20398;-71
2022/12/24 03:10:24;;;;;;;19.90;3.50;;;9.10;99.90;;;;;;5033131;28;20041;-70
2022/12/24 03:12:57;;;;;;;16.67;3.28;;;9.10;99.90;;;;;;5031688;28;20041;-71
2022/12/24 03:15:26;;;;;;;28.80;4.53;;;9.10;99.90;;;;;;5032269;28;20045;-70
2022/12/24 03:17:56;;;;;;;17.73;4.03;;;9.20;99.90;;;;;;5032280;28;20585;-70
2022/12/24 03:20:33;;;;;;;21.15;4.57;;;9.10;99.90;;;;;;5031496;28;20050;-72
2022/12/24 03:22:59;;;;;;;23.70;3.40;;;9.10;99.90;;;;;;5032902;28;20045;-71
2022/12/24 03:25:26;;;;;;;26.92;4.38;;;9.10;99.90;;;;;;5032087;28;20048;-70
2022/12/24 03:27:54;;;;;;;17.60;3.22;;;9.10;99.90;;;;;;5032934;28;20048;-69
2022/12/24 03:30:19;;;;;;;23.85;3.92;;;9.10;99.90;;;;;;5014774;28;20094;-70
2022/12/24 03:32:46;;;;;;;28.20;4.18;;;9.20;99.90;;;;;;5031413;28;20405;-70
2022/12/24 03:35:11;;;;;;;25.38;4.63;;;9.20;99.90;;;;;;5031987;28;20033;-70
2022/12/24 03:37:37;;;;;;;20.05;3.50;;;9.20;99.90;;;;;;5031084;28;20149;-70
2022/12/24 03:40:04;;;;;;;27.33;3.67;;;9.20;99.90;;;;;;5032575;28;20065;-70
2022/12/24 03:42:30;;;;;;;28.17;4.45;;;9.20;99.90;;;;;;5032303;28;20037;-70
2022/12/24 03:44:55;;;;;;;24.30;3.88;;;9.10;99.90;;;;;;5031611;28;20034;-71
2022/12/24 03:47:21;;;;;;;29.20;6.07;;;9.20;99.90;;;;;;5032406;28;20069;-71
2022/12/24 03:49:47;;;;;;;27.88;3.53;;;9.20;99.90;;;;;;5032226;28;20045;-71
2022/12/24 03:52:12;;;;;;;31.60;4.55;;;9.20;99.90;;;;;;5014365;28;20041;-70
2022/12/24 03:54:38;;;;;;;16.98;3.63;;;9.20;99.90;;;;;;5031761;28;20383;-70
2022/12/24 03:57:03;;;;;;;24.83;4.78;;;9.10;99.90;;;;;;5032340;28;20041;-70
2022/12/24 03:59:29;;;;;;;20.08;4.47;;;9.10;99.90;;;;;;5032077;28;20073;-71
2022/12/24 04:01:54;;;;;;;29.75;4.15;;;9.10;99.90;;;;;;5030634;28;20037;-70
2022/12/24 04:04:20;;;;;;;24.05;4.05;;;9.10;99.90;;;;;;5029872;28;20191;-71
2022/12/24 04:06:45;;;;;;;18.08;4.43;;;9.10;99.90;;;;;;5031992;28;20041;-70
2022/12/24 04:09:11;;;;;;;26.83;3.95;;;9.10;99.90;;;;;;5032018;28;20041;-71
2022/12/24 04:11:37;;;;;;;26.15;4.18;;;9.20;99.90;;;;;;5040315;28;20040;-70
2022/12/24 04:14:02;;;;;;;21.98;3.65;;;9.10;99.90;;;;;;5061008;28;20045;-70
2022/12/24 04:16:28;;;;;;;28.60;5.10;;;9.20;99.90;;;;;;5044578;28;20063;-71
2022/12/24 04:18:53;;;;;;;26.85;3.80;;;9.20;99.90;;;;;;5064053;28;20032;-70
2022/12/24 04:21:19;;;;;;;23.75;5.25;;;9.20;99.90;;;;;;5068222;28;20421;-71
2022/12/24 04:23:46;;;;;;;21.20;4.40;;;9.20;99.90;;;;;;5062239;28;20041;-73
2022/12/24 04:26:12;;;;;;;23.20;4.75;;;9.20;99.90;;;;;;5070099;28;20041;-70
2022/12/24 04:28:38;;;;;;;21.83;4.13;;;9.20;99.90;;;;;;5069195;28;20442;-71
2022/12/24 04:31:07;;;;;;;27.17;5.20;;;9.20;99.90;;;;;;5062124;28;20516;-70
2022/12/24 04:33:33;;;;;;;29.05;5.07;;;9.20;99.90;;;;;;5069959;28;20040;-70
2022/12/24 04:36:00;;;;;;;21.25;4.20;;;9.20;99.90;;;;;;5070488;28;20393;-70
2022/12/24 04:38:27;;;;;;;24.00;4.97;;;9.20;99.90;;;;;;5071310;28;20051;-71
2022/12/24 04:41:12;;;;;;;28.73;5.13;;;9.20;99.90;;;;;;5071228;28;20040;-70
2022/12/24 04:43:38;;;;;;;30.38;4.18;;;9.20;99.90;;;;;;5069947;28;20040;-70
2022/12/24 04:46:10;;;;;;;40.03;4.28;;;9.20;99.90;;;;;;5052402;28;20044;-71
2022/12/24 04:48:37;;;;;;;27.55;5.32;;;9.20;99.90;;;;;;5070949;28;20039;-71
2022/12/24 04:51:04;;;;;;;30.27;4.40;;;9.20;99.90;;;;;;5071008;28;20508;-70
2022/12/24 04:53:31;;;;;;;26.98;4.05;;;9.20;99.90;;;;;;5070975;28;20039;-71
2022/12/24 04:55:57;;;;;;;31.80;4.68;;;9.20;99.90;;;;;;5070186;28;20047;-71
2022/12/24 04:58:23;;;;;;;23.58;4.40;;;9.20;99.90;;;;;;5071027;28;20036;-70
2022/12/24 05:00:49;;;;;;;31.73;4.97;;;9.20;99.90;;;;;;5069308;28;20488;-70
2022/12/24 05:03:14;;;;;;;21.58;4.03;;;9.20;99.90;;;;;;5071169;28;20042;-72
2022/12/24 05:05:40;;;;;;;35.60;5.95;;;9.20;99.90;;;;;;5068647;28;20041;-71
2022/12/24 05:08:05;;;;;;;28.17;4.57;;;9.20;99.90;;;;;;5071086;28;20131;-71
2022/12/24 05:10:31;;;;;;;21.10;3.90;;;9.20;99.90;;;;;;5069380;28;20076;-71
2022/12/24 05:12:57;;;;;;;19.90;4.25;;;9.20;99.90;;;;;;5070700;28;20028;-71
2022/12/24 05:15:22;;;;;;;38.65;4.82;;;9.20;99.90;;;;;;5070110;28;20044;-71
2022/12/24 05:17:48;;;;;;;31.13;4.45;;;9.20;99.90;;;;;;5069423;28;20074;-70
2022/12/24 05:20:14;;;;;;;32.75;6.82;;;9.20;99.90;;;;;;5070752;28;20108;-71
2022/12/24 05:28:18;;;;;;;27.75;4.88;;;9.20;99.90;;;;;;5070833;28;20052;-71
2022/12/24 05:30:43;;;;;;;29.48;5.15;;;9.20;99.90;;;;;;5070459;28;20044;-70
2022/12/24 05:33:09;;;;;;;26.08;5.00;;;9.20;99.90;;;;;;5070603;28;20036;-71
2022/12/24 05:35:35;;;;;;;21.67;3.45;;;9.20;99.90;;;;;;5070082;28;20040;-70
2022/12/24 05:38:00;;;;;;;26.42;4.90;;;9.20;99.90;;;;;;5070555;28;20495;-70
2022/12/24 05:40:26;;;;;;;31.42;5.40;;;9.20;99.90;;;;;;5070575;28;20033;-70
2022/12/24 05:42:51;;;;;;;33.78;5.07;;;9.20;99.90;;;;;;5073104;28;20040;-70
2022/12/24 05:45:17;;;;;;;20.88;4.40;;;9.20;99.90;;;;;;5073870;28;20041;-71
2022/12/24 05:47:42;;;;;;;27.63;4.15;;;9.20;99.90;;;;;;5074613;28;20549;-71
2022/12/24 05:50:09;;;;;;;30.27;5.15;;;9.20;99.90;;;;;;5074346;28;20424;-71
2022/12/24 05:52:34;;;;;;;26.35;4.65;;;9.20;99.90;;;;;;5074598;28;20394;-70
2022/12/24 05:55:00;;;;;;;25.73;4.25;;;9.20;99.90;;;;;;5073863;28;20040;-70
2022/12/24 05:57:25;;;;;;;32.20;4.38;;;9.20;99.90;;;;;;5072851;28;20127;-71
2022/12/24 05:59:51;;;;;;;30.58;4.63;;;9.20;99.90;;;;;;5074122;28;20464;-71
2022/12/24 06:02:16;;;;;;;20.75;3.95;;;9.20;99.90;;;;;;5074286;28;20039;-71
2022/12/24 06:04:42;;;;;;;23.27;4.40;;;9.10;99.90;;;;;;5072297;28;20032;-70
2022/12/24 06:07:07;;;;;;;32.80;6.18;;;9.20;99.90;;;;;;5074050;28;20044;-70
2022/12/24 06:09:33;;;;;;;21.83;4.07;;;9.20;99.90;;;;;;5073917;28;20067;-72
2022/12/24 06:11:59;;;;;;;24.45;4.10;;;9.20;99.90;;;;;;5072566;28;20066;-70
2022/12/24 06:14:24;;;;;;;35.75;5.45;;;9.10;99.90;;;;;;5071751;28;20115;-70
2022/12/24 06:16:50;;;;;;;22.02;4.15;;;9.10;99.90;;;;;;5072638;28;20090;-71
2022/12/24 06:19:16;;;;;;;21.75;4.18;;;9.10;99.90;;;;;;5073672;28;20496;-71
2022/12/24 06:21:41;;;;;;;35.33;4.13;;;9.20;99.90;;;;;;5073856;28;20079;-71
2022/12/24 06:24:07;;;;;;;20.83;3.65;;;9.20;99.90;;;;;;5071861;28;20358;-70
2022/12/24 06:26:33;;;;;;;21.63;4.13;;;9.20;99.90;;;;;;5073672;28;20040;-70
2022/12/24 06:28:58;;;;;;;24.77;4.00;;;9.20;99.90;;;;;;5073933;28;20045;-70
2022/12/24 06:31:24;;;;;;;27.15;4.20;;;9.20;99.90;;;;;;5073752;28;20508;-70
2022/12/24 06:33:51;;;;;;;20.80;3.75;;;9.20;99.90;;;;;;5072935;28;20499;-71
2022/12/24 06:36:19;;;;;;;17.20;3.80;;;9.20;99.90;;;;;;5072184;28;20043;-71
2022/12/24 06:38:46;;;;;;;24.77;4.75;;;9.20;99.90;;;;;;5072291;28;20045;-71
2022/12/24 06:41:12;;;;;;;24.35;4.40;;;9.20;99.90;;;;;;5055633;28;20055;-71
2022/12/24 06:43:38;;;;;;;27.38;5.40;;;9.20;99.90;;;;;;5073629;28;20041;-71
2022/12/24 06:46:03;;;;;;;25.13;3.58;;;9.10;99.90;;;;;;5072669;28;20440;-70
2022/12/24 06:48:29;;;;;;;22.45;3.92;;;9.20;99.90;;;;;;5073579;28;20040;-70
2022/12/24 06:50:55;;;;;;;23.92;3.88;;;9.10;99.90;;;;;;5072156;28;20090;-71
2022/12/24 06:53:21;;;;;;;24.27;3.30;;;9.10;99.90;;;;;;5054510;28;20036;-71
2022/12/24 06:55:47;;;;;;;16.55;3.17;;;9.10;99.90;;;;;;5071072;28;20086;-71
2022/12/24 06:58:13;;;;;;;18.25;3.40;;;9.10;99.90;;;;;;5073417;28;20072;-71
2022/12/24 07:00:38;;;;;;;17.95;3.97;;;9.10;99.90;;;;;;5072935;28;20045;-71
2022/12/24 07:03:04;;;;;;;30.75;4.60;;;9.10;99.90;;;;;;5073035;28;20032;-72
2022/12/24 07:05:30;;;;;;;21.35;3.33;;;9.10;99.90;;;;;;5070960;28;20041;-71
2022/12/24 07:07:55;;;;;;;23.25;4.07;;;9.10;99.90;;;;;;5072850;28;20106;-70
2022/12/24 07:10:21;;;;;;;19.20;4.03;;;9.00;99.90;;;;;;5054826;28;20052;-71
2022/12/24 07:12:47;;;;;;;18.20;3.05;;;9.00;99.90;;;;;;5071368;28;20115;-71
2022/12/24 07:15:14;;;;;;;27.55;3.85;;;9.00;99.90;;;;;;5070802;28;20055;-71
2022/12/24 07:17:40;;;;;;;22.60;4.10;;;9.00;99.90;;;;;;5072639;28;20526;-70
2022/12/24 07:20:10;;;;;;;25.73;4.47;;;9.00;99.90;;;;;;5054738;28;20040;-70
2022/12/24 07:22:35;;;;;;;26.45;3.63;;;9.00;99.90;;;;;;5071176;28;20044;-71
2022/12/24 07:25:01;;;;;;;21.17;3.75;;;9.00;99.90;;;;;;5070881;28;20037;-71
2022/12/24 07:27:26;;;;;;;20.88;4.00;;;9.00;99.90;;;;;;5072826;28;20041;-71
2022/12/24 07:29:52;;;;;;;22.25;4.68;;;8.90;99.90;;;;;;5072599;28;20547;-70
2022/12/24 07:32:19;;;;;;;19.67;3.33;;;8.90;99.90;;;;;;5054929;28;20049;-70
2022/12/24 07:34:45;;;;;;;32.97;4.65;;;8.90;99.90;;;;;;5053698;28;20040;-70
2022/12/24 07:37:10;;;;;;;19.52;3.72;;;9.00;99.90;;;;;;5072474;28;20118;-71
2022/12/24 07:39:36;;;;;;;15.48;3.88;;;9.00;99.90;;;;;;5072496;28;20079;-70
2022/12/24 07:42:04;;;;;;;20.05;3.40;;;8.90;99.90;;;;;;5072572;28;20036;-70
2022/12/24 07:44:29;;;;;;;22.70;3.83;;;9.00;99.90;;;;;;5070067;28;20125;-71
2022/12/24 07:46:55;;;;;;;20.60;3.42;;;9.00;99.90;;;;;;5072274;28;20072;-71
2022/12/24 07:49:21;;;;;;;21.55;3.65;;;9.00;99.90;;;;;;5057627;28;20080;-71
2022/12/24 07:51:46;;;;;;;25.50;3.90;;;8.90;99.90;;;;;;5041839;28;20448;-71
2022/12/24 07:54:12;;;;;;;26.02;4.38;;;8.90;99.90;;;;;;5046355;28;20087;-70
2022/12/24 07:56:37;;;;;;;21.58;4.63;;;9.00;99.90;;;;;;5051955;28;20107;-71
2022/12/24 07:59:03;;;;;;;23.42;4.60;;;8.90;99.90;;;;;;5050583;28;20045;-71
2022/12/24 08:01:28;;;;;;;14.18;3.45;;;8.90;99.90;;;;;;5050571;28;20103;-71
2022/12/24 08:03:54;;;;;;;30.20;4.47;;;9.00;99.90;;;;;;5049881;28;20044;-70
2022/12/24 08:06:21;;;;;;;22.70;4.72;;;8.90;99.90;;;;;;5051271;28;20124;-70
2022/12/24 08:08:46;;;;;;;26.38;4.22;;;8.90;99.90;;;;;;5050864;28;20391;-70
2022/12/24 08:11:13;;;;;;;20.55;3.83;;;8.90;99.90;;;;;;5050666;28;20147;-70
2022/12/24 08:13:39;;;;;;;26.35;4.65;;;8.90;99.90;;;;;;5051782;28;20124;-70
2022/12/24 08:16:05;;;;;;;24.42;4.20;;;8.90;99.90;;;;;;5043923;28;20116;-71
2022/12/24 08:18:31;;;;;;;25.27;3.78;;;9.00;99.90;;;;;;5049868;28;20116;-71
2022/12/24 08:20:56;;;;;;;25.48;5.47;;;9.00;99.90;;;;;;5051777;28;20076;-71
2022/12/24 08:23:22;;;;;;;25.50;4.03;;;9.00;99.90;;;;;;5051916;28;20482;-70
2022/12/24 08:25:48;;;;;;;19.70;4.63;;;9.00;99.90;;;;;;5050716;28;20045;-71
2022/12/24 08:28:17;;;;;;;30.98;4.22;;;9.00;99.90;;;;;;5044317;28;20044;-71
2022/12/24 08:30:43;;;;;;;20.35;5.13;;;9.00;99.90;;;;;;5053312;28;20060;-70
2022/12/24 08:33:09;;;;;;;32.75;4.85;;;9.00;99.90;;;;;;5047566;28;20552;-71
2022/12/24 08:35:35;;;;;;;25.40;4.68;;;9.00;99.90;;;;;;5055152;28;20154;-70
2022/12/24 08:38:01;;;;;;;25.52;5.05;;;9.00;99.90;;;;;;5047829;28;20045;-70
2022/12/24 08:40:27;;;;;;;25.13;4.93;;;9.00;99.90;;;;;;5040524;28;20400;-68
2022/12/24 08:42:52;;;;;;;24.77;4.57;;;9.10;99.90;;;;;;5039374;28;20053;-71
2022/12/24 08:45:18;;;;;;;26.50;4.97;;;9.10;99.90;;;;;;5036941;28;20090;-70
2022/12/24 08:47:44;;;;;;;26.30;5.32;;;9.10;99.90;;;;;;5046849;28;20049;-70
2022/12/24 08:50:10;;;;;;;25.65;3.95;;;9.10;99.90;;;;;;5043120;28;20040;-70
2022/12/24 08:52:36;;;;;;;28.42;4.45;;;9.10;99.90;;;;;;5050225;28;20036;-71
2022/12/24 08:55:03;;;;;;;26.55;5.60;;;9.10;99.90;;;;;;5044059;28;20606;-72
2022/12/24 08:57:28;;;;;;;21.08;4.55;;;9.20;99.90;;;;;;5048756;28;20041;-71
2022/12/24 08:59:54;;;;;;;30.70;4.93;;;9.20;99.90;;;;;;5035843;28;20660;-71
2022/12/24 09:02:20;;;;;;;19.67;4.22;;;9.20;99.90;;;;;;5039254;28;20037;-72
2022/12/24 09:04:45;;;;;;;24.35;4.65;;;9.30;99.90;;;;;;5040621;28;20051;-74
2022/12/24 09:07:11;;;;;;;21.83;4.53;;;9.30;99.90;;;;;;5025268;28;20554;-73
2022/12/24 09:09:36;;;;;;;33.53;5.40;;;9.30;99.90;;;;;;5024600;28;20379;-72
2022/12/24 09:12:04;;;;;;;34.63;6.55;;;9.30;99.90;;;;;;5048686;28;20060;-73
2022/12/24 09:14:30;;;;;;;24.83;4.57;;;9.30;99.90;;;;;;5036275;28;20069;-72
2022/12/24 09:16:55;;;;;;;33.30;7.38;;;9.30;99.90;;;;;;5051754;28;20113;-73
2022/12/24 09:19:21;;;;;;;22.95;4.82;;;9.40;99.90;;;;;;5043567;28;20036;-74
2022/12/24 09:21:47;;;;;;;25.33;4.85;;;9.40;99.90;;;;;;5043394;28;20353;-72
2022/12/24 09:24:13;;;;;;;27.23;5.75;;;9.40;99.90;;;;;;5044279;28;20270;-74
2022/12/24 09:26:40;;;;;;;33.00;5.70;;;9.40;99.90;;;;;;5049695;28;20187;-71
2022/12/24 09:29:06;;;;;;;23.98;5.72;;;9.40;99.90;;;;;;5051036;28;20580;-74
2022/12/24 09:31:31;;;;;;;25.58;4.20;;;9.40;99.90;;;;;;5058004;28;20047;-74
2022/12/24 09:33:57;;;;;;;22.30;4.75;;;9.50;99.90;;;;;;5057765;28;20033;-73
2022/12/24 09:36:23;;;;;;;23.17;4.85;;;9.50;99.90;;;;;;5038760;28;20578;-73
2022/12/24 09:38:48;;;;;;;23.63;4.85;;;9.50;99.90;;;;;;5050903;28;20110;-74
2022/12/24 09:41:39;;;;;;;20.92;3.60;;;9.50;99.90;;;;;;5051610;28;20374;-73
2022/12/24 09:44:32;;;;;;;24.85;5.05;;;9.50;99.90;;;;;;5047276;28;20029;-73
2022/12/24 09:47:01;;;;;;;28.93;4.67;;;9.50;99.90;;;;;;5032245;28;20041;-73
2022/12/24 09:49:37;;;;;;;26.23;4.18;;;9.50;99.90;;;;;;5032080;28;20033;-72
2022/12/24 09:52:11;;;;;;;24.38;4.53;;;9.60;99.90;;;;;;5048732;28;20131;-74
2022/12/24 09:54:44;;;;;;;35.85;6.15;;;9.60;99.90;;;;;;5048140;28;20119;-73
2022/12/24 09:57:27;;;;;;;23.15;4.57;;;9.60;99.90;;;;;;5051043;28;20036;-74
2022/12/24 09:59:54;;;;;;;17.60;4.15;;;9.70;99.90;;;;;;5053100;28;20041;-72
2022/12/24 10:02:20;;;;;;;26.65;4.93;;;9.60;99.90;;;;;;5048578;28;20041;-72
2022/12/24 10:04:47;;;;;;;22.70;5.03;;;9.60;99.90;;;;;;5048502;28;20037;-72
2022/12/24 10:07:53;;;;;;;21.10;5.25;;;9.60;99.90;;;;;;5050059;28;20573;-73
2022/12/24 10:10:48;;;;;;;26.55;3.70;;;9.60;99.90;;;;;;5048868;28;20054;-75
2022/12/24 10:13:25;;;;;;;15.85;4.20;;;9.50;99.90;;;;;;5025731;28;20593;-73
2022/12/24 10:16:37;;;;;;;21.10;4.75;;;9.60;99.90;;;;;;5048258;28;20037;-73
2022/12/24 10:19:38;;;;;;;28.95;4.05;;;9.70;99.90;;;;;;5013598;28;20088;-74
2022/12/24 10:22:31;;;;;;;19.75;3.85;;;9.70;99.90;;;;;;5032181;28;20122;-70
2022/12/24 10:25:24;;;;;;;24.58;4.53;;;9.70;99.90;;;;;;5046297;28;20068;-72
2022/12/24 10:27:52;;;;;;;18.10;4.22;;;9.70;99.90;;;;;;5050653;28;20041;-71
2022/12/24 10:30:20;;;;;;;22.50;4.72;;;9.60;99.90;;;;;;5056983;28;20405;-71
2022/12/24 10:32:51;;;;;;;12.45;3.92;;;9.70;99.90;;;;;;5052844;28;20147;-72
2022/12/24 10:35:25;;;;;;;22.40;4.63;;;9.60;99.90;;;;;;5059148;28;20037;-73
2022/12/24 10:37:51;;;;;;;24.95;5.55;;;9.60;99.90;;;;;;5052809;28;20065;-73
2022/12/24 10:40:41;;;;;;;26.17;5.45;;;9.70;99.90;;;;;;5052509;28;20044;-73
2022/12/24 10:43:16;;;;;;;18.75;5.50;;;9.60;99.90;;;;;;5042759;28;20493;-71
2022/12/24 10:45:46;;;;;;;20.60;4.32;;;9.70;99.90;;;;;;5047828;28;20041;-69
2022/12/24 10:48:29;;;;;;;18.10;3.88;;;9.80;99.90;;;;;;5063733;28;20052;-69
2022/12/24 10:51:34;;;;;;;23.15;4.63;;;9.80;99.90;;;;;;5072365;28;20040;-70
2022/12/24 10:54:25;;;;;;;28.25;5.53;;;9.80;99.90;;;;;;5065209;28;20535;-69
2022/12/24 10:56:55;;;;;;;19.83;4.13;;;9.70;99.90;;;;;;5073076;28;20135;-70
2022/12/24 10:59:34;;;;;;;26.70;5.10;;;9.80;99.90;;;;;;5073365;28;20044;-69
2022/12/24 11:02:01;;;;;;;20.00;4.22;;;9.80;99.90;;;;;;5072104;28;20044;-69
2022/12/24 11:04:31;;;;;;;29.90;5.40;;;9.80;99.90;;;;;;5072413;28;20037;-70
2022/12/24 11:07:05;;;;;;;32.50;5.70;;;9.80;99.90;;;;;;5055345;28;20578;-70
2022/12/24 11:09:40;;;;;;;23.80;4.72;;;9.80;99.90;;;;;;5073202;28;20036;-69
2022/12/24 11:12:17;;;;;;;30.00;5.97;;;9.80;99.90;;;;;;5071719;28;20036;-70
2022/12/24 11:14:43;;;;;;;28.40;5.80;;;9.80;99.90;;;;;;5070980;28;20087;-69
2022/12/24 11:17:19;;;;;;;25.25;4.68;;;9.90;99.90;;;;;;5071646;28;20083;-70
2022/12/24 11:19:48;;;;;;;30.02;4.97;;;9.80;99.90;;;;;;5071735;28;20393;-71
2022/12/24 11:22:29;;;;;;;35.03;6.55;;;9.80;99.90;;;;;;5054854;28;20079;-69
2022/12/24 11:24:57;;;;;;;29.90;7.72;;;9.90;99.90;;;;;;5072270;28;20068;-69
2022/12/24 11:27:39;;;;;;;34.45;4.85;;;9.90;99.90;;;;;;5071433;28;20779;-69
2022/12/24 11:30:14;;;;;;;24.90;4.70;;;10.00;99.90;;;;;;5073066;28;20055;-69
2022/12/24 11:32:41;;;;;;;35.72;5.72;;;10.00;99.90;;;;;;5054705;28;20059;-71
2022/12/24 11:35:14;;;;;;;32.30;6.45;;;10.10;99.90;;;;;;5070603;28;20036;-70
2022/12/24 11:37:40;;;;;;;35.42;5.00;;;10.10;99.90;;;;;;5054923;28;20052;-69
2022/12/24 11:40:22;;;;;;;29.45;5.30;;;10.10;99.90;;;;;;5070820;28;20047;-68
2022/12/24 11:42:52;;;;;;;31.38;6.40;;;10.10;99.90;;;;;;5072668;28;20040;-70
2022/12/24 11:45:29;;;;;;;29.92;4.80;;;10.20;99.90;;;;;;5049625;28;20072;-68
2022/12/24 11:47:56;;;;;;;30.00;4.63;;;10.20;99.90;;;;;;5051593;28;20053;-69
2022/12/24 11:50:27;;;;;;;24.13;5.38;;;10.10;99.90;;;;;;5051688;28;20033;-71
2022/12/24 11:53:02;;;;;;;25.40;4.07;;;10.20;99.90;;;;;;5051487;28;20044;-69
2022/12/24 11:56:11;;;;;;;26.02;4.47;;;10.20;99.90;;;;;;5051435;28;20045;-69
2022/12/24 11:58:43;;;;;;;33.53;5.13;;;10.20;99.90;;;;;;5002708;28;20042;-70
2022/12/24 12:01:17;;;;;;;16.65;3.85;;;10.10;99.90;;;;;;4989886;28;20046;-69
2022/12/24 12:04:34;;;;;;;25.85;3.88;;;10.10;99.90;;;;;;4994977;28;20053;-70
2022/12/24 12:07:05;;;;;;;25.80;3.90;;;10.10;99.90;;;;;;4914887;29;20504;-70
2022/12/24 12:09:34;;;;;;;33.42;5.25;;;10.10;99.90;;;;;;4931997;29;20115;-69
2022/12/24 12:12:10;;;;;;;19.58;4.38;;;10.10;99.90;;;;;;4931828;29;20047;-69
2022/12/24 12:14:49;;;;;;;36.55;7.55;;;10.10;99.90;;;;;;4923842;29;20075;-69
2022/12/24 12:17:33;;;;;;;27.58;7.03;;;10.10;99.90;;;;;;4923605;29;20452;-70
2022/12/24 12:20:02;;;;;;;23.40;5.35;;;10.10;99.90;;;;;;4921710;29;20493;-69
2022/12/24 12:22:56;;;;;;;30.35;4.90;;;10.10;99.90;;;;;;4896929;29;20059;-69
2022/12/24 12:25:28;;;;;;;29.25;5.20;;;10.10;99.90;;;;;;4925354;29;20464;-69
2022/12/24 12:27:56;;;;;;;24.63;4.25;;;10.10;99.90;;;;;;4924098;29;20557;-71
2022/12/24 12:30:23;;;;;;;25.13;4.93;;;10.10;99.90;;;;;;4949158;28;20094;-69
2022/12/24 12:33:30;;;;;;;29.02;4.53;;;10.10;99.90;;;;;;4945056;28;20145;-70
2022/12/24 12:35:59;;;;;;;19.10;4.55;;;10.10;99.90;;;;;;4950760;28;20055;-69
2022/12/24 12:38:30;;;;;;;27.55;5.28;;;10.20;99.90;;;;;;4954606;28;20074;-69
2022/12/24 12:41:22;;;;;;;24.25;5.05;;;10.20;99.90;;;;;;4950791;28;20034;-69
2022/12/24 12:44:20;;;;;;;23.67;4.50;;;10.20;99.90;;;;;;5052484;28;20059;-69
2022/12/24 12:47:04;;;;;;;27.83;4.78;;;10.20;99.90;;;;;;5058306;28;20131;-70
2022/12/24 12:49:38;;;;;;;27.70;4.88;;;10.20;99.90;;;;;;5055487;28;20048;-70
2022/12/24 12:52:31;;;;;;;23.98;4.18;;;10.20;99.90;;;;;;5047078;28;20436;-69
2022/12/24 12:55:33;;;;;;;21.75;4.55;;;10.20;99.90;;;;;;5031040;28;20049;-69
2022/12/24 12:58:03;;;;;;;26.10;4.63;;;10.30;99.90;;;;;;5046361;28;20097;-70
2022/12/24 13:00:34;;;;;;;15.52;4.35;;;10.20;99.90;;;;;;5048597;28;20049;-69
2022/12/24 13:03:22;;;;;;;24.63;4.00;;;10.20;99.90;;;;;;5048923;28;20048;-68
2022/12/24 13:06:12;;;;;;;20.13;4.43;;;10.20;99.90;;;;;;5046587;28;20044;-70
2022/12/24 13:09:00;;;;;;;22.40;4.68;;;10.20;99.90;;;;;;5050113;28;20044;-70
2022/12/24 13:11:59;;;;;;;19.42;4.22;;;10.20;99.90;;;;;;5048680;28;20041;-69